Time;durP1;ratioP1;P1;durP2;ratioP2;P2;SDS_P1;SDS_P2;PMS_P1;PMS_P2;Temp;Humidity;BMP_temperature;BMP_pressure;BME280_temperature;BME280_humidity;BME280_pressure;Samples;Min_cycle;Max_cycle;Signal;HPM_P1;HPM_P2
2023/06/11 00:01:58;;;;;;;7.00;5.75;;;19.50;62.00;;;;;;5073559;28;20097;-72
2023/06/11 00:04:27;;;;;;;6.65;5.60;;;19.50;62.00;;;;;;5073548;28;20477;-83
2023/06/11 00:06:54;;;;;;;6.25;5.15;;;19.50;62.10;;;;;;5073613;28;20143;-81
2023/06/11 00:09:22;;;;;;;6.47;5.90;;;19.50;62.20;;;;;;5073618;28;20021;-82
2023/06/11 00:11:48;;;;;;;6.00;5.40;;;19.40;62.30;;;;;;5073535;28;20032;-72
2023/06/11 00:14:13;;;;;;;6.13;5.57;;;19.50;62.30;;;;;;5072096;28;20019;-81
2023/06/11 00:16:40;;;;;;;6.28;5.50;;;19.50;62.30;;;;;;5073311;28;20033;-83
2023/06/11 00:19:06;;;;;;;5.80;5.30;;;19.50;62.10;;;;;;5073263;28;20440;-83
2023/06/11 00:21:32;;;;;;;6.15;5.65;;;19.50;62.10;;;;;;5072856;28;20052;-82
2023/06/11 00:23:58;;;;;;;5.88;5.20;;;19.60;62.00;;;;;;5073255;28;20135;-78
2023/06/11 00:26:25;;;;;;;6.22;5.63;;;19.60;61.70;;;;;;5073161;28;20103;-73
2023/06/11 00:28:50;;;;;;;6.47;5.90;;;19.60;61.80;;;;;;5073177;28;20020;-79
2023/06/11 00:31:16;;;;;;;6.93;6.22;;;19.60;62.00;;;;;;5071896;28;20573;-74
2023/06/11 00:33:42;;;;;;;7.38;6.68;;;19.60;61.80;;;;;;5073098;28;20100;-74
2023/06/11 00:36:07;;;;;;;7.22;6.55;;;19.50;61.90;;;;;;5072946;28;20025;-72
2023/06/11 00:38:33;;;;;;;6.53;5.93;;;19.50;62.10;;;;;;5073004;28;20041;-73
2023/06/11 00:40:58;;;;;;;5.20;4.70;;;19.50;62.00;;;;;;5072969;28;20085;-72
2023/06/11 00:43:24;;;;;;;6.15;5.60;;;19.50;62.10;;;;;;5072966;28;20046;-72
2023/06/11 00:45:50;;;;;;;6.65;5.55;;;19.50;62.10;;;;;;5072871;28;20093;-72
2023/06/11 00:48:19;;;;;;;5.43;4.82;;;19.50;62.10;;;;;;5072933;28;20048;-72
2023/06/11 00:50:47;;;;;;;6.97;5.40;;;19.50;62.10;;;;;;5072857;28;20109;-71
2023/06/11 00:53:13;;;;;;;7.63;6.20;;;19.50;62.20;;;;;;5072910;28;20077;-71
2023/06/11 00:55:39;;;;;;;6.90;5.70;;;19.40;62.20;;;;;;5072889;28;20099;-71
2023/06/11 00:58:13;;;;;;;5.97;5.47;;;19.40;62.20;;;;;;5072845;28;20106;-71
2023/06/11 01:00:43;;;;;;;6.15;5.57;;;19.40;62.20;;;;;;5072791;28;20093;-71
2023/06/11 01:03:17;;;;;;;6.53;6.03;;;19.40;62.40;;;;;;5072848;28;20024;-71
2023/06/11 01:05:49;;;;;;;6.13;5.63;;;19.40;62.50;;;;;;5072789;28;20040;-71
2023/06/11 01:08:17;;;;;;;6.80;6.18;;;19.40;62.50;;;;;;5073017;28;20100;-76
2023/06/11 01:10:44;;;;;;;6.40;5.80;;;19.40;62.60;;;;;;5072763;28;20601;-79
2023/06/11 01:13:09;;;;;;;9.50;7.13;;;19.40;62.50;;;;;;5072821;28;20058;-72
2023/06/11 01:15:35;;;;;;;7.80;6.70;;;19.30;62.80;;;;;;5072688;28;20374;-71
2023/06/11 01:18:19;;;;;;;7.05;6.38;;;19.20;63.20;;;;;;5072695;28;20480;-72
2023/06/11 01:20:56;;;;;;;7.60;6.78;;;19.20;63.50;;;;;;5072681;28;20407;-72
2023/06/11 01:23:53;;;;;;;7.78;7.07;;;19.10;63.60;;;;;;5072705;28;20017;-71
2023/06/11 01:26:37;;;;;;;;;;;19.10;63.60;;;;;;5073036;28;20392;-71
2023/06/11 01:29:04;;;;;;;6.65;5.97;;;19.00;63.60;;;;;;5072695;28;20320;-71
2023/06/11 01:31:34;;;;;;;7.22;6.00;;;19.00;63.90;;;;;;5072599;28;20107;-72
2023/06/11 01:34:01;;;;;;;7.13;5.90;;;19.00;64.10;;;;;;5074657;28;20145;-71
2023/06/11 01:36:29;;;;;;;7.32;6.10;;;19.00;64.20;;;;;;5076164;28;20036;-71
2023/06/11 01:38:58;;;;;;;6.60;5.70;;;18.90;64.30;;;;;;5076210;28;20440;-71
2023/06/11 01:41:25;;;;;;;7.63;6.93;;;18.90;64.40;;;;;;5076128;28;20027;-71
2023/06/11 01:43:50;;;;;;;7.25;6.38;;;18.90;64.60;;;;;;5076208;28;20381;-72
2023/06/11 01:46:16;;;;;;;6.97;6.28;;;18.90;64.80;;;;;;5076019;28;20032;-71
2023/06/11 01:48:41;;;;;;;7.50;6.80;;;18.80;64.70;;;;;;5076020;28;20036;-71
2023/06/11 01:51:07;;;;;;;7.75;6.95;;;18.80;65.10;;;;;;5075936;28;20070;-71
2023/06/11 01:53:32;;;;;;;6.65;6.05;;;18.70;65.20;;;;;;5075958;28;20107;-71
2023/06/11 01:55:58;;;;;;;7.35;6.65;;;18.70;65.50;;;;;;5075865;28;20066;-71
2023/06/11 01:58:23;;;;;;;8.75;7.07;;;18.70;65.50;;;;;;5075837;28;20477;-71
2023/06/11 02:00:49;;;;;;;7.88;7.15;;;18.70;65.80;;;;;;5075765;28;20016;-71
2023/06/11 02:03:15;;;;;;;7.68;6.88;;;18.60;66.00;;;;;;5075752;28;20016;-71
2023/06/11 02:05:43;;;;;;;7.15;6.47;;;18.60;66.10;;;;;;5075583;28;20457;-71
2023/06/11 02:08:09;;;;;;;6.97;6.30;;;18.60;66.10;;;;;;5075567;28;20610;-71
2023/06/11 02:10:34;;;;;;;7.22;6.53;;;18.60;66.10;;;;;;5075590;28;20064;-73
2023/06/11 02:13:00;;;;;;;7.20;6.60;;;18.60;66.30;;;;;;5075563;28;20095;-80
2023/06/11 02:15:25;;;;;;;8.45;7.63;;;18.50;66.50;;;;;;5075609;28;20043;-79
2023/06/11 02:17:51;;;;;;;8.27;7.47;;;18.60;66.60;;;;;;5075622;28;20474;-79
2023/06/11 02:20:16;;;;;;;8.50;7.70;;;18.50;66.80;;;;;;5075504;28;20104;-78
2023/06/11 02:22:42;;;;;;;9.68;7.78;;;18.50;66.80;;;;;;5075500;28;20021;-81
2023/06/11 02:25:08;;;;;;;7.20;6.60;;;18.40;67.00;;;;;;5075473;28;20043;-79
2023/06/11 02:27:33;;;;;;;7.25;6.65;;;18.40;66.90;;;;;;5075406;28;20432;-77
2023/06/11 02:29:59;;;;;;;7.70;7.00;;;18.40;66.80;;;;;;5075309;28;20064;-78
2023/06/11 02:32:25;;;;;;;7.65;6.95;;;18.40;66.90;;;;;;5075254;28;20016;-83
2023/06/11 02:34:51;;;;;;;8.15;7.35;;;18.30;67.00;;;;;;5075146;28;20381;-71
2023/06/11 02:37:17;;;;;;;8.02;7.32;;;18.30;66.90;;;;;;5075230;28;20020;-71
2023/06/11 02:39:42;;;;;;;8.65;7.75;;;18.30;67.20;;;;;;5074948;28;20052;-72
2023/06/11 02:42:08;;;;;;;8.13;7.32;;;18.20;67.10;;;;;;5075045;28;20029;-71
2023/06/11 02:44:34;;;;;;;7.20;6.50;;;18.20;67.30;;;;;;5074623;28;20037;-71
2023/06/11 02:47:00;;;;;;;7.78;7.07;;;18.20;67.40;;;;;;5074891;28;20020;-71
2023/06/11 02:49:26;;;;;;;8.25;7.47;;;18.10;67.70;;;;;;5074846;28;20040;-71
2023/06/11 02:51:52;;;;;;;9.43;8.30;;;18.10;67.70;;;;;;5074866;28;20477;-71
2023/06/11 02:54:17;;;;;;;7.80;7.07;;;18.10;67.60;;;;;;5074854;28;20033;-71
2023/06/11 02:56:43;;;;;;;7.25;6.55;;;18.10;67.70;;;;;;5074893;28;20056;-71
2023/06/11 02:59:08;;;;;;;8.50;7.70;;;18.10;67.70;;;;;;5074687;28;20035;-71
2023/06/11 03:01:34;;;;;;;7.75;6.97;;;18.20;67.80;;;;;;5074612;28;20032;-71
2023/06/11 03:04:00;;;;;;;7.55;6.95;;;18.10;67.70;;;;;;5074474;28;20025;-72
2023/06/11 03:06:25;;;;;;;8.02;7.22;;;18.10;67.70;;;;;;5073316;28;20035;-79
2023/06/11 03:08:53;;;;;;;8.27;7.22;;;18.10;67.70;;;;;;5073309;28;20027;-81
2023/06/11 03:11:18;;;;;;;7.88;7.18;;;18.10;67.90;;;;;;5073180;28;20028;-81
2023/06/11 03:13:44;;;;;;;7.97;7.28;;;18.00;67.80;;;;;;5073165;28;20029;-79
2023/06/11 03:16:10;;;;;;;8.77;7.97;;;18.00;68.00;;;;;;5074388;28;20035;-82
2023/06/11 03:18:36;;;;;;;7.15;6.55;;;18.00;67.80;;;;;;5074341;28;20488;-79
2023/06/11 03:21:01;;;;;;;7.65;6.95;;;18.00;67.80;;;;;;5074285;28;20025;-83
2023/06/11 03:23:27;;;;;;;8.23;7.43;;;18.00;68.00;;;;;;5073026;28;20033;-83
2023/06/11 03:25:52;;;;;;;7.22;6.53;;;18.00;68.20;;;;;;5074125;28;20042;-79
2023/06/11 03:28:18;;;;;;;7.75;7.03;;;18.00;68.20;;;;;;5074166;28;20081;-80
2023/06/11 03:30:44;;;;;;;8.40;7.13;;;17.90;68.20;;;;;;5074063;28;20109;-81
2023/06/11 03:33:10;;;;;;;8.63;7.57;;;17.90;68.10;;;;;;5074070;28;20078;-82
2023/06/11 03:35:35;;;;;;;8.68;7.90;;;17.90;68.20;;;;;;5074070;28;20025;-82
2023/06/11 03:38:01;;;;;;;8.40;7.60;;;17.90;68.20;;;;;;5073776;28;20031;-80
2023/06/11 03:40:26;;;;;;;8.48;7.55;;;17.90;68.20;;;;;;5073986;28;20028;-83
2023/06/11 03:42:52;;;;;;;7.85;7.05;;;17.80;68.10;;;;;;5073908;28;20029;-82
2023/06/11 03:45:17;;;;;;;7.63;6.72;;;17.90;68.10;;;;;;5072482;28;20042;-80
2023/06/11 03:47:43;;;;;;;9.68;8.27;;;17.80;68.00;;;;;;5073723;28;20469;-82
2023/06/11 03:50:09;;;;;;;9.23;7.90;;;17.80;68.30;;;;;;5073749;28;20028;-79
2023/06/11 03:52:35;;;;;;;8.35;7.65;;;17.80;68.60;;;;;;5073743;28;20055;-84
2023/06/11 03:55:00;;;;;;;8.75;7.82;;;17.80;69.00;;;;;;5073882;28;20052;-84
2023/06/11 03:57:26;;;;;;;8.05;7.35;;;17.80;69.00;;;;;;5073029;28;20420;-80
2023/06/11 03:59:51;;;;;;;8.35;7.65;;;17.80;69.00;;;;;;5073585;28;20025;-83
2023/06/11 04:02:17;;;;;;;9.25;7.93;;;17.80;68.80;;;;;;5073484;28;20054;-83
2023/06/11 04:04:42;;;;;;;8.27;7.57;;;17.90;68.90;;;;;;5072192;28;20036;-80
2023/06/11 04:07:08;;;;;;;8.10;7.38;;;17.90;69.00;;;;;;5072186;28;20500;-82
2023/06/11 04:09:33;;;;;;;9.18;8.27;;;18.00;69.00;;;;;;5073509;28;20029;-84
2023/06/11 04:11:59;;;;;;;9.10;7.75;;;18.00;69.10;;;;;;5073447;28;20469;-82
2023/06/11 04:14:24;;;;;;;9.07;8.27;;;18.00;68.60;;;;;;5073457;28;20021;-82
2023/06/11 04:16:50;;;;;;;9.10;8.20;;;18.00;68.00;;;;;;5073354;28;20055;-84
2023/06/11 04:19:16;;;;;;;9.23;7.72;;;17.90;68.70;;;;;;5073590;28;20432;-80
2023/06/11 04:21:41;;;;;;;9.27;8.38;;;18.00;68.40;;;;;;5073586;28;20562;-83
2023/06/11 04:24:07;;;;;;;8.38;7.53;;;18.00;68.20;;;;;;5074803;28;20056;-78
2023/06/11 04:26:32;;;;;;;8.32;7.07;;;18.00;68.00;;;;;;5076708;28;20035;-84
2023/06/11 04:28:58;;;;;;;8.70;7.93;;;18.10;67.90;;;;;;5073330;28;20020;-72
2023/06/11 04:31:26;;;;;;;8.32;7.63;;;18.20;67.80;;;;;;5073144;28;20469;-71
2023/06/11 04:33:55;;;;;;;9.85;8.85;;;18.20;67.80;;;;;;5073127;28;20017;-71
2023/06/11 04:36:24;;;;;;;9.00;8.10;;;18.20;67.70;;;;;;5073261;28;20025;-71
2023/06/11 04:38:51;;;;;;;9.02;8.13;;;18.30;67.80;;;;;;5071646;28;20045;-71
2023/06/11 04:41:17;;;;;;;8.20;6.78;;;18.40;67.50;;;;;;5073094;28;20492;-71
2023/06/11 04:43:45;;;;;;;9.65;8.30;;;18.50;67.40;;;;;;5073509;28;20036;-71
2023/06/11 04:46:11;;;;;;;8.25;7.47;;;18.60;67.00;;;;;;5072817;28;20457;-71
2023/06/11 04:48:37;;;;;;;9.52;8.63;;;18.60;66.80;;;;;;5073015;28;20032;-71
2023/06/11 04:51:04;;;;;;;8.90;8.10;;;18.70;66.50;;;;;;5072945;28;20024;-71
2023/06/11 04:53:31;;;;;;;9.75;7.95;;;18.60;66.50;;;;;;5072916;28;20020;-71
2023/06/11 04:55:58;;;;;;;8.80;8.00;;;18.60;66.50;;;;;;5072999;28;20012;-71
2023/06/11 04:58:30;;;;;;;7.90;7.22;;;18.60;66.60;;;;;;5072879;28;20029;-71
2023/06/11 05:00:56;;;;;;;9.35;7.78;;;18.50;67.30;;;;;;5072870;28;20485;-71
2023/06/11 05:03:27;;;;;;;7.88;7.22;;;18.60;67.10;;;;;;5072787;28;20420;-72
2023/06/11 05:05:53;;;;;;;8.63;7.82;;;18.60;66.90;;;;;;5072886;28;20029;-71
2023/06/11 05:08:24;;;;;;;8.15;7.35;;;18.70;66.70;;;;;;5075650;28;20074;-72
2023/06/11 05:10:50;;;;;;;8.40;7.63;;;18.70;66.70;;;;;;5076865;28;20028;-72
2023/06/11 05:13:16;;;;;;;10.27;9.27;;;18.70;66.70;;;;;;5076695;28;20017;-71
2023/06/11 05:15:41;;;;;;;7.65;6.90;;;18.70;66.80;;;;;;5076714;28;20040;-71
2023/06/11 05:18:07;;;;;;;7.72;7.05;;;18.70;66.90;;;;;;5076698;28;20032;-72
2023/06/11 05:20:32;;;;;;;9.25;8.43;;;18.70;66.80;;;;;;5076608;28;20021;-72
2023/06/11 05:22:59;;;;;;;10.05;8.93;;;18.80;66.60;;;;;;5075294;28;20487;-72
2023/06/11 05:25:28;;;;;;;10.52;8.63;;;18.70;67.00;;;;;;5076457;28;20033;-71
2023/06/11 05:27:57;;;;;;;10.35;9.20;;;18.70;66.90;;;;;;5076364;28;20568;-71
2023/06/11 05:30:25;;;;;;;8.45;7.45;;;18.60;67.20;;;;;;5076412;28;20043;-71
2023/06/11 05:32:54;;;;;;;8.23;7.43;;;18.60;67.40;;;;;;5076371;28;20071;-71
2023/06/11 05:35:20;;;;;;;9.23;8.32;;;18.60;67.30;;;;;;5076343;28;20048;-71
2023/06/11 05:37:46;;;;;;;8.52;7.75;;;18.60;67.00;;;;;;5076299;28;20125;-71
2023/06/11 05:40:12;;;;;;;8.52;7.60;;;18.70;66.80;;;;;;5075940;28;20040;-71
2023/06/11 05:42:38;;;;;;;9.15;7.90;;;18.90;66.80;;;;;;5076222;28;20045;-72
2023/06/11 05:45:05;;;;;;;10.98;9.60;;;19.00;66.40;;;;;;5075984;28;20393;-71
2023/06/11 05:47:32;;;;;;;9.75;8.75;;;19.00;66.60;;;;;;5076082;28;20044;-71
2023/06/11 05:49:58;;;;;;;9.48;8.48;;;18.80;67.50;;;;;;5076105;28;20451;-74
2023/06/11 05:52:23;;;;;;;8.32;7.50;;;18.90;68.40;;;;;;5075967;28;20023;-84
2023/06/11 05:54:49;;;;;;;8.63;7.68;;;19.00;67.40;;;;;;5076021;28;20029;-72
2023/06/11 05:57:22;;;;;;;10.10;9.13;;;19.00;67.10;;;;;;5075981;28;20028;-76
2023/06/11 05:59:49;;;;;;;8.55;7.82;;;19.10;67.50;;;;;;5076153;28;20055;-85
2023/06/11 06:02:15;;;;;;;9.27;8.38;;;19.20;67.00;;;;;;5076111;28;20411;-85
2023/06/11 06:04:40;;;;;;;8.32;7.55;;;19.20;66.70;;;;;;5076079;28;20032;-70
2023/06/11 06:07:06;;;;;;;8.68;7.78;;;19.30;66.50;;;;;;5077451;28;20016;-71
2023/06/11 06:09:33;;;;;;;9.20;8.13;;;19.40;66.40;;;;;;5076262;28;20104;-71
2023/06/11 06:11:58;;;;;;;9.05;8.15;;;19.60;65.80;;;;;;5075690;28;20031;-71
2023/06/11 06:14:24;;;;;;;8.82;7.97;;;19.70;65.50;;;;;;5075597;28;20025;-70
2023/06/11 06:16:50;;;;;;;8.88;8.07;;;19.80;65.40;;;;;;5075599;28;20023;-72
2023/06/11 06:19:15;;;;;;;8.82;7.93;;;19.90;65.00;;;;;;5074872;28;20066;-71
2023/06/11 06:21:41;;;;;;;9.20;8.32;;;20.00;64.70;;;;;;5075461;28;20025;-71
2023/06/11 06:24:07;;;;;;;9.57;8.63;;;20.10;64.30;;;;;;5075291;28;20024;-71
2023/06/11 06:26:32;;;;;;;8.68;7.80;;;20.20;63.80;;;;;;5075422;28;20039;-72
2023/06/11 06:28:58;;;;;;;8.65;7.80;;;20.10;64.40;;;;;;5075264;28;20020;-70
2023/06/11 06:31:24;;;;;;;7.07;6.43;;;20.30;63.90;;;;;;5075325;28;20473;-70
2023/06/11 06:33:50;;;;;;;7.32;6.63;;;20.40;62.90;;;;;;5073982;28;20031;-70
2023/06/11 06:36:16;;;;;;;8.07;7.28;;;20.40;62.40;;;;;;5075250;28;20020;-70
2023/06/11 06:38:42;;;;;;;7.53;6.82;;;20.50;62.10;;;;;;5074855;28;20401;-70
2023/06/11 06:41:07;;;;;;;7.80;7.10;;;20.60;61.70;;;;;;5075158;28;20024;-70
2023/06/11 06:43:34;;;;;;;6.90;6.20;;;20.60;61.30;;;;;;5075207;28;20496;-70
2023/06/11 06:46:00;;;;;;;6.13;5.63;;;20.50;61.40;;;;;;5074940;28;20032;-70
2023/06/11 06:48:25;;;;;;;6.95;6.15;;;20.50;61.30;;;;;;5074992;28;20073;-70
2023/06/11 06:50:51;;;;;;;8.45;6.03;;;20.50;61.00;;;;;;5074874;28;20032;-70
2023/06/11 06:53:17;;;;;;;5.90;5.40;;;20.60;60.70;;;;;;5073520;28;20021;-70
2023/06/11 06:55:44;;;;;;;8.02;6.10;;;20.80;60.00;;;;;;5074734;28;20042;-70
2023/06/11 06:58:10;;;;;;;6.50;5.90;;;20.70;60.20;;;;;;5074657;28;20047;-71
2023/06/11 07:00:35;;;;;;;6.63;5.82;;;20.70;60.10;;;;;;5074753;28;20473;-71
2023/06/11 07:03:01;;;;;;;7.07;6.07;;;20.60;59.80;;;;;;5074720;28;20038;-72
2023/06/11 07:05:27;;;;;;;5.38;4.88;;;20.60;59.70;;;;;;5074615;28;20032;-71
2023/06/11 07:07:53;;;;;;;5.05;4.65;;;20.70;59.60;;;;;;5074632;28;20485;-71
2023/06/11 07:10:19;;;;;;;5.65;5.15;;;20.70;59.50;;;;;;5073366;28;20040;-72
2023/06/11 07:12:44;;;;;;;5.50;5.07;;;20.80;59.30;;;;;;5074598;28;20048;-71
2023/06/11 07:15:10;;;;;;;5.00;4.60;;;20.90;59.40;;;;;;5074560;28;20021;-71
2023/06/11 07:17:36;;;;;;;5.93;4.80;;;21.10;58.50;;;;;;5073099;28;20492;-72
2023/06/11 07:20:04;;;;;;;5.35;4.85;;;21.40;57.30;;;;;;5074306;28;20381;-71
2023/06/11 07:22:30;;;;;;;5.40;4.97;;;21.60;56.60;;;;;;5073042;28;20477;-72
2023/06/11 07:24:56;;;;;;;5.20;4.70;;;21.90;56.20;;;;;;5074378;28;20033;-72
2023/06/11 07:27:22;;;;;;;5.40;4.55;;;22.00;54.50;;;;;;5074193;28;20024;-72
2023/06/11 07:29:47;;;;;;;5.00;4.50;;;22.20;53.30;;;;;;5073999;28;20039;-72
2023/06/11 07:32:13;;;;;;;5.15;4.65;;;22.30;53.20;;;;;;5073277;28;20105;-71
2023/06/11 07:34:40;;;;;;;5.95;4.57;;;22.50;53.30;;;;;;5074125;28;20041;-72
2023/06/11 07:37:05;;;;;;;6.03;4.57;;;22.60;53.20;;;;;;5074025;28;20487;-72
2023/06/11 07:39:31;;;;;;;7.13;4.85;;;22.60;52.40;;;;;;5073899;28;20040;-72
2023/06/11 07:41:57;;;;;;;4.72;4.30;;;22.70;50.90;;;;;;5073831;28;20481;-72
2023/06/11 07:44:22;;;;;;;5.25;4.75;;;22.70;51.30;;;;;;5073715;28;20060;-72
2023/06/11 07:46:48;;;;;;;5.10;4.60;;;22.60;51.30;;;;;;5073797;28;20111;-72
2023/06/11 07:49:13;;;;;;;5.35;4.85;;;22.80;51.40;;;;;;5073773;28;20124;-72
2023/06/11 07:51:41;;;;;;;5.35;4.80;;;22.70;51.40;;;;;;5074156;28;20052;-70
2023/06/11 07:54:07;;;;;;;5.55;4.65;;;22.80;51.80;;;;;;5073643;28;20029;-71
2023/06/11 07:56:33;;;;;;;6.03;4.93;;;22.70;51.80;;;;;;5073719;28;20027;-71
2023/06/11 07:58:59;;;;;;;6.38;4.43;;;22.80;51.90;;;;;;5073499;28;20036;-71
2023/06/11 08:01:24;;;;;;;6.85;4.85;;;22.70;52.10;;;;;;5073511;28;20061;-71
2023/06/11 08:03:50;;;;;;;6.35;5.75;;;22.70;51.80;;;;;;5073417;28;20040;-71
2023/06/11 08:06:16;;;;;;;5.13;4.63;;;22.60;51.80;;;;;;5073317;28;20489;-71
2023/06/11 08:08:41;;;;;;;8.52;5.78;;;22.50;52.20;;;;;;5073499;28;20026;-71
2023/06/11 08:11:08;;;;;;;5.10;4.70;;;22.50;52.10;;;;;;5073482;28;20032;-72
2023/06/11 08:13:34;;;;;;;6.30;5.13;;;22.60;52.20;;;;;;5073427;28;20024;-71
2023/06/11 08:16:00;;;;;;;5.40;4.90;;;22.70;52.10;;;;;;5073321;28;20024;-71
2023/06/11 08:18:26;;;;;;;6.18;5.35;;;22.80;51.70;;;;;;5073296;28;20103;-71
2023/06/11 08:20:53;;;;;;;5.47;4.97;;;23.10;50.70;;;;;;5073211;28;20099;-70
2023/06/11 08:23:19;;;;;;;5.97;5.15;;;23.40;50.60;;;;;;5073354;28;20017;-71
2023/06/11 08:25:45;;;;;;;5.65;4.68;;;23.60;49.60;;;;;;5073002;28;20028;-70
2023/06/11 08:28:11;;;;;;;7.97;5.30;;;23.60;48.80;;;;;;5073235;28;20020;-71
2023/06/11 08:30:36;;;;;;;6.18;5.07;;;23.80;48.60;;;;;;5073158;28;20090;-71
2023/06/11 08:33:02;;;;;;;4.72;4.32;;;23.80;47.90;;;;;;5073077;28;20099;-71
2023/06/11 08:35:27;;;;;;;6.90;5.00;;;23.80;47.70;;;;;;5073118;28;20040;-71
2023/06/11 08:37:53;;;;;;;5.15;4.68;;;23.80;47.80;;;;;;5072797;28;20051;-71
2023/06/11 08:40:20;;;;;;;5.65;5.10;;;23.70;48.00;;;;;;5073020;28;20116;-72
2023/06/11 08:42:47;;;;;;;5.60;4.53;;;23.90;48.20;;;;;;5072755;28;20024;-70
2023/06/11 08:45:12;;;;;;;5.03;4.53;;;24.00;47.90;;;;;;5072900;28;20111;-70
2023/06/11 08:47:41;;;;;;;7.40;4.85;;;24.10;47.60;;;;;;5072813;28;20064;-71
2023/06/11 08:50:07;;;;;;;6.00;4.50;;;24.10;46.70;;;;;;5072867;28;20078;-71
2023/06/11 08:52:37;;;;;;;4.82;4.32;;;24.00;46.20;;;;;;5072926;28;20099;-70
2023/06/11 08:55:03;;;;;;;4.25;3.85;;;24.00;45.60;;;;;;5073006;28;20388;-70
2023/06/11 08:57:30;;;;;;;6.85;4.50;;;24.00;46.00;;;;;;5072869;28;20469;-70
2023/06/11 08:59:56;;;;;;;5.60;5.03;;;24.00;45.90;;;;;;5072730;28;20111;-71
2023/06/11 09:02:21;;;;;;;5.00;4.50;;;24.00;46.10;;;;;;5072752;28;20146;-70
2023/06/11 09:04:47;;;;;;;5.10;4.60;;;24.10;45.80;;;;;;5071647;28;20032;-70
2023/06/11 09:07:22;;;;;;;5.22;4.72;;;24.00;45.30;;;;;;5072793;28;20025;-70
2023/06/11 09:10:01;;;;;;;4.75;4.22;;;24.20;45.40;;;;;;5071628;28;20048;-72
2023/06/11 09:12:27;;;;;;;4.93;4.43;;;24.40;45.40;;;;;;5072554;28;20086;-70
2023/06/11 09:14:53;;;;;;;6.72;4.28;;;24.60;44.20;;;;;;5072552;28;20024;-70
2023/06/11 09:17:19;;;;;;;5.00;4.10;;;24.80;44.00;;;;;;5071414;28;20021;-72
2023/06/11 09:19:45;;;;;;;5.07;4.57;;;24.80;43.20;;;;;;5072788;28;20432;-72
2023/06/11 09:22:11;;;;;;;4.80;4.38;;;24.80;43.10;;;;;;5072720;28;20046;-86
2023/06/11 09:24:36;;;;;;;5.72;5.13;;;24.80;43.20;;;;;;5072875;28;20016;-84
2023/06/11 09:27:02;;;;;;;6.78;5.72;;;24.80;42.50;;;;;;5072876;28;20025;-86
2023/06/11 09:29:28;;;;;;;5.18;4.28;;;24.80;42.60;;;;;;5072675;28;20078;-86
2023/06/11 09:32:08;;;;;;;6.15;4.25;;;24.80;42.60;;;;;;5072792;28;20116;-72
2023/06/11 09:34:34;;;;;;;4.32;3.95;;;25.00;43.00;;;;;;5072762;28;20422;-73
2023/06/11 09:37:00;;;;;;;6.82;4.45;;;25.30;42.50;;;;;;5071396;28;20029;-74
2023/06/11 09:39:29;;;;;;;5.35;4.25;;;25.30;41.90;;;;;;5072492;28;20048;-86
2023/06/11 09:41:55;;;;;;;5.00;4.32;;;25.20;41.30;;;;;;5072441;28;20052;-81
2023/06/11 09:44:21;;;;;;;4.60;4.20;;;25.10;41.90;;;;;;5072439;28;20071;-84
2023/06/11 09:46:48;;;;;;;4.93;4.13;;;25.40;42.50;;;;;;5072650;28;20028;-84
2023/06/11 09:49:15;;;;;;;4.82;4.18;;;25.50;40.60;;;;;;5072763;28;20044;-85
2023/06/11 09:51:41;;;;;;;4.60;4.00;;;25.60;39.40;;;;;;5072549;28;20093;-82
2023/06/11 09:54:10;;;;;;;5.13;4.40;;;25.80;39.80;;;;;;5073341;28;20021;-85
2023/06/11 09:56:37;;;;;;;5.18;4.05;;;25.90;39.00;;;;;;5075956;28;20035;-81
2023/06/11 09:59:03;;;;;;;5.25;4.35;;;25.90;39.00;;;;;;5075958;28;20028;-77
2023/06/11 10:01:30;;;;;;;4.03;3.72;;;25.90;39.00;;;;;;5076110;28;20031;-85
2023/06/11 10:03:59;;;;;;;5.45;4.10;;;26.00;38.50;;;;;;5076036;28;20016;-87
2023/06/11 10:06:35;;;;;;;6.65;4.25;;;26.10;37.30;;;;;;5074513;28;20488;-86
2023/06/11 10:09:04;;;;;;;4.75;4.18;;;26.00;37.20;;;;;;5075767;28;20031;-72
2023/06/11 10:11:38;;;;;;;6.40;3.90;;;26.00;37.60;;;;;;5075671;28;20025;-72
2023/06/11 10:14:05;;;;;;;3.63;3.33;;;26.20;37.50;;;;;;5075743;28;20021;-72
2023/06/11 10:16:31;;;;;;;4.13;3.72;;;26.20;37.20;;;;;;5075560;28;20032;-72
2023/06/11 10:19:08;;;;;;;4.80;3.85;;;26.20;37.00;;;;;;5075598;28;20039;-72
2023/06/11 10:21:41;;;;;;;5.38;3.42;;;26.30;35.30;;;;;;5075553;28;20063;-74
2023/06/11 10:24:08;;;;;;;4.90;3.42;;;26.20;35.50;;;;;;5078114;28;20025;-72
2023/06/11 10:26:35;;;;;;;4.07;3.67;;;26.10;36.00;;;;;;5075508;28;20485;-72
2023/06/11 10:29:01;;;;;;;4.65;4.25;;;26.10;36.30;;;;;;5075374;28;20431;-70
2023/06/11 10:31:36;;;;;;;6.72;3.90;;;26.20;36.00;;;;;;5075391;28;20048;-72
2023/06/11 10:34:02;;;;;;;;;;;26.30;36.10;;;;;;5075768;28;20096;-72
2023/06/11 10:36:37;;;;;;;6.97;3.80;;;26.40;34.60;;;;;;5075150;28;19908;-72
2023/06/11 10:39:05;;;;;;;6.82;3.22;;;26.50;34.40;;;;;;5075053;28;20050;-72
2023/06/11 10:41:36;;;;;;;7.40;3.88;;;26.60;34.20;;;;;;5075273;28;20023;-72
2023/06/11 10:44:02;;;;;;;4.72;3.78;;;26.50;33.70;;;;;;5073684;28;20025;-72
2023/06/11 10:46:28;;;;;;;5.15;3.95;;;26.50;34.30;;;;;;5074986;28;20033;-74
2023/06/11 10:48:56;;;;;;;4.10;3.70;;;26.70;34.00;;;;;;5075258;28;20077;-72
2023/06/11 10:51:22;;;;;;;4.07;3.75;;;26.90;33.30;;;;;;5075886;28;20035;-72
2023/06/11 10:53:56;;;;;;;3.83;3.45;;;27.30;33.80;;;;;;5075390;28;20029;-72
2023/06/11 10:56:22;;;;;;;4.60;3.70;;;27.40;33.60;;;;;;5077900;28;20389;-72
2023/06/11 10:58:52;;;;;;;4.13;3.67;;;27.70;34.50;;;;;;5077438;28;20027;-72
2023/06/11 11:01:21;;;;;;;4.00;3.33;;;27.90;33.20;;;;;;5074982;28;20039;-72
2023/06/11 11:03:48;;;;;;;4.47;3.47;;;27.90;32.20;;;;;;5074637;28;20020;-73
2023/06/11 11:06:28;;;;;;;6.75;5.13;;;27.70;32.40;;;;;;5074433;28;20374;-72
2023/06/11 11:08:57;;;;;;;4.30;3.35;;;27.50;32.80;;;;;;5074679;28;20028;-72
2023/06/11 11:11:24;;;;;;;3.83;3.40;;;27.60;32.50;;;;;;5074527;28;20025;-72
2023/06/11 11:13:50;;;;;;;3.80;3.50;;;27.50;32.80;;;;;;5074552;28;20039;-72
2023/06/11 11:16:19;;;;;;;5.32;3.90;;;27.40;33.00;;;;;;5073900;28;20029;-71
2023/06/11 11:18:49;;;;;;;4.78;3.25;;;27.20;33.00;;;;;;5074045;28;20028;-73
2023/06/11 11:21:15;;;;;;;4.22;3.38;;;27.40;32.80;;;;;;5074175;28;20064;-71
2023/06/11 11:23:42;;;;;;;7.28;3.70;;;27.60;33.20;;;;;;5073706;28;20029;-82
2023/06/11 11:26:08;;;;;;;5.57;3.50;;;28.10;32.00;;;;;;5073094;28;20043;-84
2023/06/11 11:28:34;;;;;;;3.85;3.47;;;28.40;31.30;;;;;;5073967;28;20024;-75
2023/06/11 11:31:00;;;;;;;6.93;3.40;;;28.60;29.10;;;;;;5075256;28;20107;-71
2023/06/11 11:33:27;;;;;;;4.90;3.42;;;28.60;29.60;;;;;;5074815;28;20048;-86
2023/06/11 11:35:54;;;;;;;4.80;3.92;;;28.80;30.20;;;;;;5075310;28;20031;-70
2023/06/11 11:38:20;;;;;;;5.15;4.05;;;29.00;28.30;;;;;;5073841;28;20115;-70
2023/06/11 11:40:45;;;;;;;6.13;4.22;;;29.10;30.00;;;;;;5072775;28;20109;-71
2023/06/11 11:43:15;;;;;;;3.85;3.55;;;29.10;29.40;;;;;;5074045;28;20028;-75
2023/06/11 11:45:46;;;;;;;5.35;3.88;;;29.10;29.80;;;;;;5073829;28;20058;-71
2023/06/11 11:48:15;;;;;;;7.45;4.10;;;29.50;29.70;;;;;;5073005;28;20024;-72
2023/06/11 11:50:40;;;;;;;4.32;3.45;;;29.80;27.60;;;;;;5070591;28;20477;-78
2023/06/11 11:53:15;;;;;;;6.97;3.42;;;29.60;27.50;;;;;;5071477;28;20043;-82
2023/06/11 11:55:46;;;;;;;3.85;3.45;;;29.50;28.20;;;;;;5071664;28;20036;-71
2023/06/11 11:58:15;;;;;;;4.13;3.50;;;29.60;28.50;;;;;;5071418;28;20017;-71
2023/06/11 12:00:52;;;;;;;3.75;2.83;;;29.70;28.70;;;;;;5071781;28;20027;-70
2023/06/11 12:03:22;;;;;;;5.07;3.08;;;29.60;26.20;;;;;;5071668;28;20046;-72
2023/06/11 12:06:00;;;;;;;6.18;3.33;;;29.50;27.00;;;;;;5071878;28;20122;-70
2023/06/11 12:08:27;;;;;;;4.70;3.30;;;29.60;26.40;;;;;;5071908;28;20598;-73
2023/06/11 12:10:54;;;;;;;3.70;3.30;;;29.80;26.70;;;;;;5071457;28;20028;-71
2023/06/11 12:13:20;;;;;;;4.18;3.55;;;29.70;27.30;;;;;;5071985;28;20017;-71
2023/06/11 12:15:45;;;;;;;3.92;3.42;;;29.40;27.50;;;;;;5072874;28;20020;-71
2023/06/11 12:18:11;;;;;;;3.90;3.50;;;29.00;28.60;;;;;;5072435;28;20035;-70
2023/06/11 12:20:36;;;;;;;5.47;4.00;;;29.00;28.60;;;;;;5073169;28;20114;-71
2023/06/11 12:23:03;;;;;;;6.95;3.72;;;29.10;27.80;;;;;;5073170;28;20035;-72
2023/06/11 12:25:30;;;;;;;5.13;3.65;;;29.30;27.70;;;;;;5073030;28;20044;-72
2023/06/11 12:27:56;;;;;;;5.78;4.05;;;29.50;27.40;;;;;;5073194;28;20523;-70
2023/06/11 12:30:22;;;;;;;5.30;3.92;;;29.80;27.40;;;;;;5073302;28;20036;-70
2023/06/11 12:32:48;;;;;;;9.75;3.45;;;29.70;26.70;;;;;;5073176;28;20386;-70
2023/06/11 12:35:13;;;;;;;5.63;3.45;;;29.70;25.60;;;;;;5073124;28;20028;-70
2023/06/11 12:37:39;;;;;;;4.15;3.75;;;29.70;26.20;;;;;;5073020;28;20473;-70
2023/06/11 12:40:06;;;;;;;4.00;3.58;;;29.50;26.70;;;;;;5072846;28;20102;-71
2023/06/11 12:42:33;;;;;;;3.88;3.50;;;29.20;27.00;;;;;;5072936;28;20107;-71
2023/06/11 12:45:00;;;;;;;7.13;3.47;;;29.20;27.50;;;;;;5076759;28;20035;-75
2023/06/11 12:47:25;;;;;;;4.00;3.67;;;29.40;26.50;;;;;;5073295;28;20035;-70